Terminal Aerodrome Forecast
Issued by NWS Billings, MT

Home | Current Version | Previous Version | Text Only | Print | Product List | Glossary On
Versions: 1 2 3 4 5 6 7 8 9 10 11 12 13 14 15 16 17 18 19 20 21 22 23 24 25 26 27 28 29 30
066
FTUS45 KBYZ 251916 AAA
TAFMLS
TAF AMD
KMLS 251916Z 2519/2618 28015G22KT P6SM FEW100 BKN150
     FM260000 33018G26KT P6SM VCSH BKN060
     FM260600 30009KT P6SM SKC=

USA.gov is the U.S. government's official web portal to all federal, state and local government web resources and services.